Time;durP1;ratioP1;P1;durP2;ratioP2;P2;SDS_P1;SDS_P2;PMS_P1;PMS_P2;Temp;Humidity;BMP_temperature;BMP_pressure;BME280_temperature;BME280_humidity;BME280_pressure;Samples;Min_cycle;Max_cycle;Signal;HPM_P1;HPM_P2
2023/08/28 00:02:10;;;;;;;1.48;1.20;;;;;;;;;;5102071;28;20915;-77
2023/08/28 00:04:36;;;;;;;1.40;1.30;;;;;;;;;;5114184;28;20380;-77
2023/08/28 00:07:02;;;;;;;1.47;1.30;;;;;;;;;;5114519;28;20445;-77
2023/08/28 00:09:28;;;;;;;1.40;1.30;;;;;;;;;;5114423;28;20380;-77
2023/08/28 00:11:54;;;;;;;2.03;1.50;;;;;;;;;;5114438;28;20395;-78
2023/08/28 00:14:20;;;;;;;2.22;1.23;;;;;;;;;;5114403;28;20404;-78
2023/08/28 00:16:47;;;;;;;1.90;1.33;;;;;;;;;;5114467;28;20415;-78
2023/08/28 00:19:13;;;;;;;2.67;1.30;;;;;;;;;;5115841;28;20387;-78
2023/08/28 00:21:39;;;;;;;1.58;1.48;;;;;;;;;;5116460;28;20498;-78
2023/08/28 00:24:05;;;;;;;1.70;1.42;;;;;;;;;;5103042;28;20725;-78
2023/08/28 00:26:31;;;;;;;1.40;1.30;;;;;;;;;;5116367;28;20384;-78
2023/08/28 00:28:57;;;;;;;1.20;1.10;;;;;;;;;;5116953;28;20746;-78
2023/08/28 00:31:23;;;;;;;1.45;1.33;;;;;;;;;;5116670;28;20473;-78
2023/08/28 00:33:49;;;;;;;1.42;1.33;;;;;;;;;;5116202;28;20373;-78
2023/08/28 00:36:16;;;;;;;1.30;1.20;;;;;;;;;;5116357;28;20381;-78
2023/08/28 00:38:42;;;;;;;1.60;1.50;;;;;;;;;;5115400;28;20391;-78
2023/08/28 00:41:08;;;;;;;2.33;1.60;;;;;;;;;;5115931;28;20380;-78
2023/08/28 00:43:34;;;;;;;1.75;1.65;;;;;;;;;;5116116;28;20803;-78
2023/08/28 00:46:02;;;;;;;2.33;2.13;;;;;;;;;;5116027;28;20483;-78
2023/08/28 00:48:29;;;;;;;1.85;1.73;;;;;;;;;;5115874;28;20376;-78
2023/08/28 00:50:55;;;;;;;2.25;2.08;;;;;;;;;;5115123;28;20383;-78
2023/08/28 00:53:21;;;;;;;2.00;1.90;;;;;;;;;;5114732;28;20373;-79
2023/08/28 00:55:48;;;;;;;1.70;1.60;;;;;;;;;;5114663;28;20383;-79
2023/08/28 00:58:14;;;;;;;2.25;2.05;;;;;;;;;;5115579;28;20377;-78
2023/08/28 01:00:43;;;;;;;1.58;1.48;;;;;;;;;;5105212;28;20411;-79
2023/08/28 01:03:09;;;;;;;1.70;1.60;;;;;;;;;;5111395;28;20444;-79
2023/08/28 01:05:44;;;;;;;2.23;1.80;;;;;;;;;;5116348;28;20376;-78
2023/08/28 01:08:17;;;;;;;2.03;1.83;;;;;;;;;;5115003;28;20865;-78
2023/08/28 01:10:48;;;;;;;1.98;1.88;;;;;;;;;;5115208;28;20388;-77
2023/08/28 01:13:22;;;;;;;2.08;1.80;;;;;;;;;;5114063;28;20391;-78
2023/08/28 01:15:49;;;;;;;2.15;2.00;;;;;;;;;;5104334;28;20382;-78
2023/08/28 01:18:15;;;;;;;2.03;1.93;;;;;;;;;;5113542;28;20884;-77
2023/08/28 01:20:42;;;;;;;2.70;2.40;;;;;;;;;;5113782;28;20452;-78
2023/08/28 01:23:15;;;;;;;2.38;2.17;;;;;;;;;;5113544;28;20757;-77
2023/08/28 01:25:41;;;;;;;2.45;2.25;;;;;;;;;;5099004;28;20376;-77
2023/08/28 01:28:07;;;;;;;2.22;2.13;;;;;;;;;;5113517;28;20384;-77
2023/08/28 01:30:33;;;;;;;2.15;2.05;;;;;;;;;;5113641;28;20391;-78
2023/08/28 01:32:59;;;;;;;2.40;2.20;;;;;;;;;;5115439;28;20722;-78
2023/08/28 01:35:26;;;;;;;2.75;2.55;;;;;;;;;;5110677;28;20395;-77
2023/08/28 01:37:57;;;;;;;2.85;2.65;;;;;;;;;;5113053;28;20387;-77
2023/08/28 01:40:44;;;;;;;3.58;3.35;;;;;;;;;;5111921;28;20388;-77
2023/08/28 01:43:12;;;;;;;3.80;3.50;;;;;;;;;;5100886;28;20980;-78
2023/08/28 01:45:38;;;;;;;3.72;3.40;;;;;;;;;;5112437;28;20389;-79
2023/08/28 01:48:05;;;;;;;3.70;3.40;;;;;;;;;;5114070;28;20376;-78
2023/08/28 01:50:31;;;;;;;3.80;3.45;;;;;;;;;;5115012;28;20437;-78
2023/08/28 01:52:57;;;;;;;3.50;3.30;;;;;;;;;;5109818;28;20403;-79
2023/08/28 01:55:46;;;;;;;4.20;3.90;;;;;;;;;;5116276;28;20459;-78
2023/08/28 01:58:15;;;;;;;4.05;3.65;;;;;;;;;;5106407;28;20378;-78
2023/08/28 02:00:41;;;;;;;4.30;4.00;;;;;;;;;;5107391;28;20484;-78
2023/08/28 02:03:10;;;;;;;4.30;4.00;;;;;;;;;;5114044;28;20404;-78
2023/08/28 02:05:36;;;;;;;3.80;3.58;;;;;;;;;;5113962;28;20389;-79
2023/08/28 02:08:02;;;;;;;4.07;3.70;;;;;;;;;;5115154;28;20447;-78
2023/08/28 02:10:28;;;;;;;3.63;3.42;;;;;;;;;;5112391;28;20395;-79
2023/08/28 02:12:54;;;;;;;3.75;3.45;;;;;;;;;;5117142;28;20384;-79
2023/08/28 02:15:20;;;;;;;3.67;3.47;;;;;;;;;;5117858;28;20384;-79
2023/08/28 02:17:46;;;;;;;3.70;3.50;;;;;;;;;;5117260;28;20376;-79
2023/08/28 02:20:12;;;;;;;3.93;3.63;;;;;;;;;;5117553;28;20389;-79
2023/08/28 02:22:38;;;;;;;3.88;3.58;;;;;;;;;;5117629;28;20435;-79
2023/08/28 02:25:05;;;;;;;3.63;3.33;;;;;;;;;;5116923;28;21177;-79
2023/08/28 02:27:31;;;;;;;4.00;3.00;;;;;;;;;;5099589;28;20454;-79
2023/08/28 02:29:57;;;;;;;3.30;3.10;;;;;;;;;;5097714;28;20382;-79
2023/08/28 02:32:26;;;;;;;3.80;3.50;;;;;;;;;;5113208;28;20379;-79
2023/08/28 02:34:52;;;;;;;3.35;3.15;;;;;;;;;;5114882;28;20487;-78
2023/08/28 02:37:18;;;;;;;4.07;3.77;;;;;;;;;;5100410;28;20378;-78
2023/08/28 02:39:44;;;;;;;4.50;4.20;;;;;;;;;;5114387;28;20678;-78
2023/08/28 02:42:10;;;;;;;4.78;4.40;;;;;;;;;;5114782;28;20558;-79
2023/08/28 02:44:36;;;;;;;4.25;3.95;;;;;;;;;;5100357;28;20375;-78
2023/08/28 02:47:02;;;;;;;4.40;4.10;;;;;;;;;;5114357;28;20394;-78
2023/08/28 02:49:28;;;;;;;4.05;3.78;;;;;;;;;;5106241;28;20382;-78
2023/08/28 02:51:54;;;;;;;4.32;4.03;;;;;;;;;;5107574;28;20414;-78
2023/08/28 02:54:20;;;;;;;4.20;3.92;;;;;;;;;;5113583;28;20380;-78
2023/08/28 02:56:46;;;;;;;3.90;3.60;;;;;;;;;;5104060;28;20850;-78
2023/08/28 02:59:12;;;;;;;4.17;3.87;;;;;;;;;;5110750;28;20842;-79
2023/08/28 03:01:38;;;;;;;3.97;3.78;;;;;;;;;;5100557;28;20436;-78
2023/08/28 03:04:05;;;;;;;4.40;4.00;;;;;;;;;;5114658;28;20760;-79
2023/08/28 03:06:34;;;;;;;4.40;4.10;;;;;;;;;;5099973;28;20378;-79
2023/08/28 03:09:00;;;;;;;4.05;3.75;;;;;;;;;;5114801;28;20376;-79
2023/08/28 03:11:26;;;;;;;3.58;3.38;;;;;;;;;;5096842;28;20390;-79
2023/08/28 03:13:52;;;;;;;3.58;3.38;;;;;;;;;;5100556;28;20372;-79
2023/08/28 03:16:18;;;;;;;3.85;3.65;;;;;;;;;;5114322;28;20430;-79
2023/08/28 03:18:44;;;;;;;3.67;3.30;;;;;;;;;;5114312;28;20376;-79
2023/08/28 03:21:10;;;;;;;3.40;3.10;;;;;;;;;;5114470;28;20741;-79
2023/08/28 03:23:35;;;;;;;3.43;3.23;;;;;;;;;;5112064;28;20412;-78
2023/08/28 03:26:02;;;;;;;4.82;3.10;;;;;;;;;;5104767;28;20372;-79
2023/08/28 03:28:28;;;;;;;3.57;3.27;;;;;;;;;;5118463;28;20380;-78
2023/08/28 03:30:58;;;;;;;3.00;2.80;;;;;;;;;;5118173;28;20376;-79
2023/08/28 03:33:24;;;;;;;3.28;2.97;;;;;;;;;;5117783;28;20376;-79
2023/08/28 03:35:50;;;;;;;3.35;3.15;;;;;;;;;;5118227;28;20408;-78
2023/08/28 03:38:16;;;;;;;3.30;3.10;;;;;;;;;;5117678;28;20883;-79
2023/08/28 03:40:43;;;;;;;3.80;3.50;;;;;;;;;;5117696;28;21191;-79
2023/08/28 03:43:09;;;;;;;3.47;3.20;;;;;;;;;;5117431;28;20420;-79
2023/08/28 03:45:35;;;;;;;3.20;2.97;;;;;;;;;;5116203;28;20412;-79
2023/08/28 03:48:01;;;;;;;3.15;2.85;;;;;;;;;;5118002;28;20437;-79
2023/08/28 03:50:30;;;;;;;3.60;3.30;;;;;;;;;;5099317;28;20376;-79
2023/08/28 03:52:59;;;;;;;3.60;3.30;;;;;;;;;;5113845;28;20373;-79
2023/08/28 03:55:29;;;;;;;3.95;3.55;;;;;;;;;;5113905;28;20866;-79
2023/08/28 03:57:55;;;;;;;3.45;3.17;;;;;;;;;;5111932;28;20871;-79
2023/08/28 04:00:21;;;;;;;3.10;2.90;;;;;;;;;;5110890;28;20391;-78
2023/08/28 04:02:48;;;;;;;3.30;3.05;;;;;;;;;;5108146;28;20411;-79
2023/08/28 04:05:16;;;;;;;3.50;3.15;;;;;;;;;;5114694;28;20903;-80
2023/08/28 04:07:43;;;;;;;3.20;2.95;;;;;;;;;;5110268;28;20381;-81
2023/08/28 04:10:09;;;;;;;2.90;2.60;;;;;;;;;;5101734;28;20405;-79
2023/08/28 04:12:35;;;;;;;2.90;2.70;;;;;;;;;;5109730;28;20416;-79
2023/08/28 04:15:01;;;;;;;2.40;2.20;;;;;;;;;;5105631;28;20378;-80
2023/08/28 04:17:27;;;;;;;3.08;2.40;;;;;;;;;;5107558;28;20514;-80
2023/08/28 04:19:55;;;;;;;2.60;2.40;;;;;;;;;;5087291;28;20421;-79
2023/08/28 04:22:21;;;;;;;2.27;2.07;;;;;;;;;;5100211;28;20431;-79
2023/08/28 04:24:50;;;;;;;3.47;2.40;;;;;;;;;;5113356;28;20738;-81
2023/08/28 04:27:17;;;;;;;2.47;2.28;;;;;;;;;;5106471;28;20731;-80
2023/08/28 04:29:43;;;;;;;2.65;2.15;;;;;;;;;;5115773;28;20425;-79
2023/08/28 04:32:09;;;;;;;2.10;1.90;;;;;;;;;;5116464;28;20376;-80
2023/08/28 04:34:35;;;;;;;2.15;1.83;;;;;;;;;;5091768;28;20385;-80
2023/08/28 04:37:01;;;;;;;1.60;1.50;;;;;;;;;;5102130;28;20385;-81
2023/08/28 04:39:28;;;;;;;1.90;1.45;;;;;;;;;;5111905;28;20389;-81
2023/08/28 04:41:54;;;;;;;3.40;1.67;;;;;;;;;;5100106;28;20412;-79
2023/08/28 04:44:20;;;;;;;2.55;1.55;;;;;;;;;;5102643;28;20722;-80
2023/08/28 04:46:47;;;;;;;2.20;1.50;;;;;;;;;;5107004;28;20444;-79
2023/08/28 04:49:14;;;;;;;1.90;1.40;;;;;;;;;;5110048;28;20409;-80
2023/08/28 04:51:40;;;;;;;2.30;1.33;;;;;;;;;;5108346;28;20373;-79
2023/08/28 04:54:06;;;;;;;1.40;1.17;;;;;;;;;;5102530;28;20457;-79
2023/08/28 04:56:32;;;;;;;1.30;1.17;;;;;;;;;;5099154;28;20385;-80
2023/08/28 04:58:59;;;;;;;1.40;1.10;;;;;;;;;;5109289;28;20385;-79
2023/08/28 05:01:25;;;;;;;1.38;1.15;;;;;;;;;;5107990;28;20372;-79
2023/08/28 05:03:51;;;;;;;1.20;1.10;;;;;;;;;;5105123;28;20404;-79
2023/08/28 05:06:17;;;;;;;1.60;1.40;;;;;;;;;;5110729;28;20388;-79
2023/08/28 05:08:43;;;;;;;1.42;1.23;;;;;;;;;;5109866;28;20413;-80
2023/08/28 05:11:09;;;;;;;1.50;1.20;;;;;;;;;;5103807;28;20388;-79
2023/08/28 05:13:34;;;;;;;1.90;1.33;;;;;;;;;;5115630;28;20390;-80
2023/08/28 05:16:00;;;;;;;2.05;1.30;;;;;;;;;;5108461;28;20376;-79
2023/08/28 05:18:26;;;;;;;1.30;1.20;;;;;;;;;;5104882;28;20904;-79
2023/08/28 05:20:52;;;;;;;1.75;1.30;;;;;;;;;;5119154;28;20388;-80
2023/08/28 05:23:25;;;;;;;1.83;1.50;;;;;;;;;;5118760;28;20437;-80
2023/08/28 05:25:51;;;;;;;1.90;1.48;;;;;;;;;;5119140;28;20368;-80
2023/08/28 05:28:17;;;;;;;2.40;1.38;;;;;;;;;;5101608;28;20725;-79
2023/08/28 05:30:43;;;;;;;1.55;1.45;;;;;;;;;;5119550;28;20467;-80
2023/08/28 05:33:08;;;;;;;2.20;1.30;;;;;;;;;;5108718;28;20467;-80
2023/08/28 05:35:34;;;;;;;2.22;1.40;;;;;;;;;;5114671;28;20377;-80
2023/08/28 05:38:00;;;;;;;1.52;1.40;;;;;;;;;;5118788;28;20464;-80
2023/08/28 05:40:26;;;;;;;1.70;1.55;;;;;;;;;;5117884;28;20727;-78
2023/08/28 05:42:53;;;;;;;2.35;1.20;;;;;;;;;;5113578;28;20418;-80
2023/08/28 05:45:19;;;;;;;2.22;1.50;;;;;;;;;;5112408;28;20414;-80
2023/08/28 05:47:45;;;;;;;1.60;1.20;;;;;;;;;;5118436;28;20423;-80
2023/08/28 05:50:11;;;;;;;4.17;1.43;;;;;;;;;;5101840;28;20380;-80
2023/08/28 05:52:37;;;;;;;1.45;1.27;;;;;;;;;;5118985;28;20376;-80
2023/08/28 05:55:04;;;;;;;1.35;1.10;;;;;;;;;;5095418;28;20442;-79
2023/08/28 05:57:30;;;;;;;1.30;1.20;;;;;;;;;;5103955;28;20465;-79
2023/08/28 05:59:56;;;;;;;2.42;1.25;;;;;;;;;;5110836;28;20393;-79
2023/08/28 06:02:22;;;;;;;1.57;1.10;;;;;;;;;;5117864;28;20476;-79
2023/08/28 06:04:49;;;;;;;1.20;1.00;;;;;;;;;;5103496;28;20383;-79
2023/08/28 06:07:15;;;;;;;1.42;0.90;;;;;;;;;;5106976;28;20388;-79
2023/08/28 06:09:44;;;;;;;1.50;1.00;;;;;;;;;;5104078;28;20382;-79
2023/08/28 06:12:10;;;;;;;1.50;1.10;;;;;;;;;;5096678;28;20719;-79
2023/08/28 06:14:36;;;;;;;1.13;1.03;;;;;;;;;;5097780;28;20385;-79
2023/08/28 06:17:05;;;;;;;2.80;1.20;;;;;;;;;;5100758;28;20377;-79
2023/08/28 06:19:31;;;;;;;2.97;1.00;;;;;;;;;;5110333;28;20844;-79
2023/08/28 06:21:57;;;;;;;1.20;1.10;;;;;;;;;;5105368;28;20410;-79
2023/08/28 06:24:23;;;;;;;1.35;1.08;;;;;;;;;;5108784;28;20410;-79
2023/08/28 06:26:52;;;;;;;1.10;0.90;;;;;;;;;;5108464;28;20374;-79
2023/08/28 06:29:18;;;;;;;1.37;0.97;;;;;;;;;;5107114;28;20380;-79
2023/08/28 06:31:44;;;;;;;1.10;0.80;;;;;;;;;;5106377;28;20388;-79
2023/08/28 06:34:10;;;;;;;0.90;0.88;;;;;;;;;;5112495;28;20409;-79
2023/08/28 06:36:36;;;;;;;1.42;0.93;;;;;;;;;;5102882;28;20378;-78
2023/08/28 06:39:02;;;;;;;1.40;0.90;;;;;;;;;;5104863;28;20423;-78
2023/08/28 06:41:28;;;;;;;1.67;1.00;;;;;;;;;;5078985;28;20382;-80
2023/08/28 06:43:54;;;;;;;1.57;0.90;;;;;;;;;;5098298;28;20421;-80
2023/08/28 06:46:20;;;;;;;0.80;0.80;;;;;;;;;;5103758;28;20378;-79
2023/08/28 06:48:48;;;;;;;1.10;0.80;;;;;;;;;;5113304;28;20436;-80
2023/08/28 06:51:14;;;;;;;1.17;0.88;;;;;;;;;;5097572;28;20377;-79
2023/08/28 06:53:40;;;;;;;2.10;1.20;;;;;;;;;;5110056;28;20387;-79
2023/08/28 06:56:06;;;;;;;2.08;1.20;;;;;;;;;;5114527;28;20382;-80
2023/08/28 06:58:33;;;;;;;2.70;1.13;;;;;;;;;;5118369;28;20861;-81
2023/08/28 07:00:59;;;;;;;1.48;1.00;;;;;;;;;;5116445;28;20380;-80
2023/08/28 07:03:25;;;;;;;2.60;1.33;;;;;;;;;;5118774;28;20607;-80
2023/08/28 07:05:51;;;;;;;1.40;1.00;;;;;;;;;;5114809;28;20372;-81
2023/08/28 07:08:17;;;;;;;3.00;1.20;;;;;;;;;;5119508;28;20380;-80
2023/08/28 07:10:43;;;;;;;1.70;1.08;;;;;;;;;;5102819;28;20378;-81
2023/08/28 07:13:09;;;;;;;1.00;0.90;;;;;;;;;;5108741;28;20397;-81
2023/08/28 07:15:35;;;;;;;2.35;1.00;;;;;;;;;;5114951;28;20749;-81
2023/08/28 07:18:01;;;;;;;1.38;1.00;;;;;;;;;;5120962;28;20383;-80
2023/08/28 07:20:28;;;;;;;1.50;1.20;;;;;;;;;;5102217;28;20386;-80
2023/08/28 07:22:54;;;;;;;2.28;0.90;;;;;;;;;;5101965;28;20492;-81
2023/08/28 07:25:22;;;;;;;2.05;1.10;;;;;;;;;;5107296;28;20379;-80
2023/08/28 07:27:48;;;;;;;1.23;1.08;;;;;;;;;;5115423;28;20406;-79
2023/08/28 07:30:14;;;;;;;2.40;1.08;;;;;;;;;;5117719;28;20821;-80
2023/08/28 07:32:40;;;;;;;2.42;1.23;;;;;;;;;;5112640;28;20403;-79
2023/08/28 07:35:07;;;;;;;1.35;0.90;;;;;;;;;;5107473;28;20413;-80
2023/08/28 07:37:36;;;;;;;1.80;1.00;;;;;;;;;;5107209;28;20386;-80
2023/08/28 07:40:05;;;;;;;2.33;1.38;;;;;;;;;;5105176;28;20497;-80
2023/08/28 07:42:32;;;;;;;1.85;1.00;;;;;;;;;;5106252;28;20404;-81
2023/08/28 07:44:58;;;;;;;2.28;1.05;;;;;;;;;;5120284;28;20810;-80
2023/08/28 07:47:24;;;;;;;1.30;1.00;;;;;;;;;;5111378;28;20390;-80
2023/08/28 07:49:50;;;;;;;1.10;0.93;;;;;;;;;;5121130;28;20414;-80
2023/08/28 07:52:16;;;;;;;2.08;1.17;;;;;;;;;;5113252;28;20451;-80
2023/08/28 07:54:42;;;;;;;1.73;0.90;;;;;;;;;;5120149;28;20437;-80
2023/08/28 07:57:08;;;;;;;2.05;1.33;;;;;;;;;;5108581;28;20378;-80
2023/08/28 07:59:34;;;;;;;1.40;1.10;;;;;;;;;;5100433;28;20390;-80
2023/08/28 08:02:01;;;;;;;1.08;0.85;;;;;;;;;;5107309;28;20450;-80
2023/08/28 08:04:27;;;;;;;1.60;1.30;;;;;;;;;;5107773;28;20738;-81
2023/08/28 08:06:53;;;;;;;1.45;1.00;;;;;;;;;;5099905;28;20370;-82
2023/08/28 08:09:19;;;;;;;1.73;1.08;;;;;;;;;;5099863;28;20461;-81
2023/08/28 08:11:45;;;;;;;1.83;1.15;;;;;;;;;;5100790;28;20425;-81
2023/08/28 08:14:11;;;;;;;1.10;1.00;;;;;;;;;;5110539;28;20384;-81
2023/08/28 08:16:37;;;;;;;1.45;1.00;;;;;;;;;;5107154;28;20735;-81
2023/08/28 08:19:03;;;;;;;1.77;1.10;;;;;;;;;;5099884;28;20816;-81
2023/08/28 08:21:29;;;;;;;2.33;1.00;;;;;;;;;;5099916;28;20390;-81
2023/08/28 08:23:55;;;;;;;2.20;1.20;;;;;;;;;;5099872;28;20417;-80
2023/08/28 08:26:22;;;;;;;1.50;1.05;;;;;;;;;;5100086;28;20378;-81
2023/08/28 08:28:48;;;;;;;2.03;1.20;;;;;;;;;;5101258;28;20457;-81
2023/08/28 08:31:14;;;;;;;1.80;1.13;;;;;;;;;;5099256;28;20482;-84
2023/08/28 08:33:40;;;;;;;1.20;1.10;;;;;;;;;;5107463;28;20388;-85
2023/08/28 08:36:07;;;;;;;2.42;1.02;;;;;;;;;;5099865;28;20416;-84
2023/08/28 08:38:33;;;;;;;1.35;1.23;;;;;;;;;;5099466;28;20382;-82
2023/08/28 08:40:59;;;;;;;2.03;0.90;;;;;;;;;;5105959;28;20382;-82
2023/08/28 08:43:25;;;;;;;1.23;1.13;;;;;;;;;;5110555;28;20412;-82
2023/08/28 08:45:55;;;;;;;1.85;1.30;;;;;;;;;;5101747;28;20379;-82
2023/08/28 08:48:24;;;;;;;1.57;1.03;;;;;;;;;;5101198;28;20467;-82
2023/08/28 08:50:50;;;;;;;3.80;1.27;;;;;;;;;;5100800;28;20382;-82
2023/08/28 08:53:28;;;;;;;1.30;1.10;;;;;;;;;;5119557;28;20383;-81
2023/08/28 08:55:57;;;;;;;1.38;1.27;;;;;;;;;;5109345;28;20372;-81
2023/08/28 08:58:23;;;;;;;1.02;1.00;;;;;;;;;;5101794;28;20831;-81
2023/08/28 09:00:50;;;;;;;2.30;1.25;;;;;;;;;;5115256;28;20791;-81
2023/08/28 09:03:17;;;;;;;1.20;1.10;;;;;;;;;;5118834;28;20497;-82
2023/08/28 09:05:44;;;;;;;1.40;1.20;;;;;;;;;;5100320;28;20390;-82
2023/08/28 09:08:10;;;;;;;1.25;1.10;;;;;;;;;;5114598;28;20411;-82
2023/08/28 09:10:36;;;;;;;2.70;1.30;;;;;;;;;;5111561;28;20449;-82
2023/08/28 09:13:04;;;;;;;1.10;1.00;;;;;;;;;;5098406;28;20405;-82
2023/08/28 09:15:30;;;;;;;1.30;1.05;;;;;;;;;;5104694;28;20424;-82
2023/08/28 09:17:56;;;;;;;1.23;1.10;;;;;;;;;;5107571;28;20397;-81
2023/08/28 09:20:22;;;;;;;2.17;1.00;;;;;;;;;;5097953;28;20377;-81
2023/08/28 09:22:52;;;;;;;1.45;0.80;;;;;;;;;;5116244;28;20416;-81
2023/08/28 09:25:18;;;;;;;1.25;1.05;;;;;;;;;;5103619;28;20860;-81
2023/08/28 09:27:46;;;;;;;1.80;1.13;;;;;;;;;;5108959;28;20431;-81
2023/08/28 09:30:32;;;;;;;1.40;1.00;;;;;;;;;;5080634;28;20467;-81
2023/08/28 09:32:59;;;;;;;1.15;1.05;;;;;;;;;;5098700;28;20398;-82
2023/08/28 09:35:28;;;;;;;1.33;1.00;;;;;;;;;;5111618;28;20380;-81
2023/08/28 09:37:58;;;;;;;1.70;1.20;;;;;;;;;;5104983;28;20881;-82
2023/08/28 09:40:31;;;;;;;1.20;1.02;;;;;;;;;;5103827;28;20374;-81
2023/08/28 09:43:00;;;;;;;1.45;1.10;;;;;;;;;;5097921;28;20445;-82
2023/08/28 09:45:31;;;;;;;1.90;1.10;;;;;;;;;;5097782;28;20882;-81
2023/08/28 09:47:57;;;;;;;2.35;1.02;;;;;;;;;;5108155;28;20439;-81
2023/08/28 09:50:28;;;;;;;1.42;1.10;;;;;;;;;;5110309;28;20387;-81
2023/08/28 09:52:54;;;;;;;1.75;1.10;;;;;;;;;;5099682;28;20428;-81
2023/08/28 09:55:20;;;;;;;1.20;1.02;;;;;;;;;;5102192;28;20377;-80
2023/08/28 09:57:46;;;;;;;1.80;1.10;;;;;;;;;;5084260;28;20420;-80
2023/08/28 10:00:13;;;;;;;1.35;1.00;;;;;;;;;;5117439;28;20865;-80
2023/08/28 10:02:39;;;;;;;1.45;1.00;;;;;;;;;;5118002;28;20415;-80
2023/08/28 10:05:10;;;;;;;1.93;1.23;;;;;;;;;;5112556;28;20393;-79
2023/08/28 10:07:39;;;;;;;1.40;0.90;;;;;;;;;;5091715;28;20377;-80
2023/08/28 10:10:07;;;;;;;1.42;1.00;;;;;;;;;;5112734;28;20392;-80
2023/08/28 10:12:33;;;;;;;1.60;1.00;;;;;;;;;;5096322;28;20387;-81
2023/08/28 10:15:01;;;;;;;0.98;0.90;;;;;;;;;;5105058;28;20397;-80
2023/08/28 10:17:28;;;;;;;1.50;1.00;;;;;;;;;;5109368;28;20496;-80
2023/08/28 10:19:57;;;;;;;1.15;0.88;;;;;;;;;;5097191;28;20425;-80
2023/08/28 10:22:24;;;;;;;1.23;1.03;;;;;;;;;;5097158;28;21177;-80
2023/08/28 10:24:51;;;;;;;1.55;1.20;;;;;;;;;;5108684;28;20388;-80
2023/08/28 10:27:17;;;;;;;1.95;1.20;;;;;;;;;;5112525;28;20401;-80
2023/08/28 10:29:46;;;;;;;1.88;1.15;;;;;;;;;;5098610;28;20712;-80
2023/08/28 10:32:13;;;;;;;1.02;0.80;;;;;;;;;;5099843;28;20397;-81
2023/08/28 10:34:40;;;;;;;1.20;1.08;;;;;;;;;;5097587;28;20847;-81
2023/08/28 10:37:08;;;;;;;1.38;1.10;;;;;;;;;;5100309;28;20386;-80
2023/08/28 10:39:34;;;;;;;1.35;0.95;;;;;;;;;;5112539;28;20370;-82
2023/08/28 10:42:00;;;;;;;1.17;0.90;;;;;;;;;;5082119;28;20386;-83
2023/08/28 10:44:27;;;;;;;2.20;0.98;;;;;;;;;;5100730;28;20386;-81
2023/08/28 10:46:53;;;;;;;0.95;0.80;;;;;;;;;;5112371;28;20381;-82
2023/08/28 10:49:19;;;;;;;1.65;0.82;;;;;;;;;;5102707;28;20382;-83
2023/08/28 10:51:45;;;;;;;1.63;1.00;;;;;;;;;;5102786;28;20388;-82
2023/08/28 10:54:11;;;;;;;1.33;0.97;;;;;;;;;;5103210;28;20412;-82
2023/08/28 10:56:38;;;;;;;1.50;1.00;;;;;;;;;;5111848;28;20425;-81
2023/08/28 10:59:19;;;;;;;1.20;1.10;;;;;;;;;;5107917;28;20423;-81
2023/08/28 11:01:54;;;;;;;1.60;1.10;;;;;;;;;;5101660;28;20418;-82
2023/08/28 11:04:21;;;;;;;1.55;1.02;;;;;;;;;;5116925;28;20930;-81
2023/08/28 11:06:47;;;;;;;1.50;0.95;;;;;;;;;;5117973;28;20481;-81
2023/08/28 11:09:28;;;;;;;1.47;1.30;;;;;;;;;;5117606;28;20384;-81
2023/08/28 11:11:58;;;;;;;1.48;1.02;;;;;;;;;;5115880;28;20460;-81
2023/08/28 11:14:24;;;;;;;1.75;1.10;;;;;;;;;;5117041;28;20884;-81
2023/08/28 11:17:04;;;;;;;1.45;1.00;;;;;;;;;;5115150;28;20384;-82
2023/08/28 11:19:30;;;;;;;2.00;1.17;;;;;;;;;;5108637;28;20384;-81
2023/08/28 11:21:59;;;;;;;0.80;0.80;;;;;;;;;;5118120;28;20861;-80
2023/08/28 11:24:25;;;;;;;1.40;1.10;;;;;;;;;;5117290;28;20408;-81
2023/08/28 11:26:52;;;;;;;1.50;1.20;;;;;;;;;;5117106;28;20433;-81
2023/08/28 11:29:31;;;;;;;1.10;0.93;;;;;;;;;;5109781;28;20922;-80
2023/08/28 11:31:58;;;;;;;1.27;1.15;;;;;;;;;;5111904;28;20380;-81
2023/08/28 11:34:24;;;;;;;1.30;1.02;;;;;;;;;;5110340;28;20390;-81
2023/08/28 11:36:50;;;;;;;1.05;0.90;;;;;;;;;;5110426;28;20848;-81
2023/08/28 11:39:23;;;;;;;1.20;1.02;;;;;;;;;;5117480;28;20377;-81
2023/08/28 11:41:50;;;;;;;0.98;0.90;;;;;;;;;;5116541;28;20386;-81
2023/08/28 11:44:16;;;;;;;1.08;0.90;;;;;;;;;;5116674;28;20437;-81
2023/08/28 11:46:42;;;;;;;1.30;1.13;;;;;;;;;;5119971;28;20376;-81
2023/08/28 11:49:08;;;;;;;1.20;1.10;;;;;;;;;;5100145;28;20381;-81
2023/08/28 11:51:36;;;;;;;2.22;1.25;;;;;;;;;;5109494;28;20379;-82
2023/08/28 11:54:03;;;;;;;1.20;1.10;;;;;;;;;;5089544;28;20386;-82
2023/08/28 11:56:33;;;;;;;1.60;1.40;;;;;;;;;;5121126;28;20865;-81
2023/08/28 11:59:00;;;;;;;1.45;1.20;;;;;;;;;;5108140;28;20390;-82
2023/08/28 12:01:27;;;;;;;1.80;1.40;;;;;;;;;;5118753;28;20387;-82
2023/08/28 12:03:59;;;;;;;1.83;1.30;;;;;;;;;;5111395;28;20504;-82
2023/08/28 12:06:25;;;;;;;1.67;1.40;;;;;;;;;;5104604;28;20380;-82
2023/08/28 12:08:51;;;;;;;1.50;1.40;;;;;;;;;;5107179;28;20420;-82
2023/08/28 12:11:18;;;;;;;1.40;1.30;;;;;;;;;;5117009;28;20377;-81
2023/08/28 12:13:45;;;;;;;1.57;1.47;;;;;;;;;;5101049;28;20413;-81
2023/08/28 12:16:17;;;;;;;1.20;1.10;;;;;;;;;;5109223;28;20393;-81
2023/08/28 12:18:46;;;;;;;1.20;1.10;;;;;;;;;;5110581;28;20389;-81
2023/08/28 12:21:12;;;;;;;2.22;1.33;;;;;;;;;;5104421;28;20384;-82
2023/08/28 12:23:56;;;;;;;1.70;1.50;;;;;;;;;;5109810;28;20481;-81
2023/08/28 12:26:24;;;;;;;1.70;1.27;;;;;;;;;;5106750;28;20835;-81
2023/08/28 12:28:50;;;;;;;1.27;1.10;;;;;;;;;;5100803;28;20414;-80
2023/08/28 12:31:23;;;;;;;1.52;1.25;;;;;;;;;;5100643;28;20390;-82
2023/08/28 12:33:49;;;;;;;1.50;1.10;;;;;;;;;;5100914;28;20389;-82
2023/08/28 12:36:15;;;;;;;1.33;1.10;;;;;;;;;;5102339;28;20720;-82
2023/08/28 12:38:47;;;;;;;0.98;0.98;;;;;;;;;;5101446;28;20382;-82
2023/08/28 12:41:14;;;;;;;1.27;1.10;;;;;;;;;;5109383;28;20437;-82
2023/08/28 12:43:40;;;;;;;1.17;1.08;;;;;;;;;;5106567;28;20418;-82
2023/08/28 12:46:06;;;;;;;1.30;1.20;;;;;;;;;;5099531;28;20389;-82
2023/08/28 12:48:32;;;;;;;1.50;1.38;;;;;;;;;;5120091;28;20452;-82
2023/08/28 12:50:58;;;;;;;1.02;1.00;;;;;;;;;;5115674;28;20399;-82
2023/08/28 12:53:25;;;;;;;1.42;1.20;;;;;;;;;;5100960;28;20394;-82
2023/08/28 12:55:51;;;;;;;1.67;1.30;;;;;;;;;;5102779;28;20391;-82
2023/08/28 12:58:17;;;;;;;1.63;1.20;;;;;;;;;;5119749;28;20377;-82
2023/08/28 13:00:44;;;;;;;1.30;1.17;;;;;;;;;;5093307;28;20397;-82
2023/08/28 13:03:10;;;;;;;1.33;1.20;;;;;;;;;;5101976;28;20450;-81
2023/08/28 13:05:36;;;;;;;2.53;1.35;;;;;;;;;;5112599;28;20400;-81
2023/08/28 13:08:02;;;;;;;1.85;1.20;;;;;;;;;;5112448;28;20380;-82
2023/08/28 13:10:28;;;;;;;1.40;1.30;;;;;;;;;;5107111;28;20709;-82
2023/08/28 13:12:54;;;;;;;1.50;1.20;;;;;;;;;;5101636;28;20394;-82
2023/08/28 13:15:20;;;;;;;1.38;1.25;;;;;;;;;;5114035;28;20396;-82
2023/08/28 13:17:46;;;;;;;1.30;1.20;;;;;;;;;;5103753;28;20418;-82
2023/08/28 13:20:12;;;;;;;1.20;1.10;;;;;;;;;;5096915;28;20465;-82
2023/08/28 13:22:38;;;;;;;2.10;1.40;;;;;;;;;;5104981;28;20405;-82
2023/08/28 13:25:04;;;;;;;1.70;1.60;;;;;;;;;;5098517;28;20886;-82
2023/08/28 13:27:30;;;;;;;1.60;1.50;;;;;;;;;;5105342;28;20381;-82
2023/08/28 13:29:56;;;;;;;1.50;1.40;;;;;;;;;;5106820;28;20378;-83
2023/08/28 13:32:23;;;;;;;1.38;1.27;;;;;;;;;;5103720;28;20383;-82
2023/08/28 13:34:49;;;;;;;1.50;1.10;;;;;;;;;;5109380;28;20473;-82
2023/08/28 13:37:15;;;;;;;1.42;1.10;;;;;;;;;;5107293;28;20413;-82
2023/08/28 13:39:41;;;;;;;1.20;1.10;;;;;;;;;;5115166;28;20459;-82
2023/08/28 13:42:07;;;;;;;1.33;1.20;;;;;;;;;;5097538;28;20446;-81
2023/08/28 13:44:35;;;;;;;1.42;1.33;;;;;;;;;;5103894;28;20853;-82
2023/08/28 13:47:03;;;;;;;1.30;1.17;;;;;;;;;;5119887;28;20386;-82
2023/08/28 13:49:29;;;;;;;1.20;1.10;;;;;;;;;;5115360;28;20396;-81
2023/08/28 13:51:55;;;;;;;1.30;1.20;;;;;;;;;;5098779;28;20724;-81
2023/08/28 13:54:21;;;;;;;1.60;1.50;;;;;;;;;;5110897;28;20387;-82
2023/08/28 13:56:47;;;;;;;1.45;1.20;;;;;;;;;;5110632;28;20384;-81
2023/08/28 13:59:13;;;;;;;2.03;1.20;;;;;;;;;;5119907;28;20418;-82
2023/08/28 14:01:40;;;;;;;1.67;1.17;;;;;;;;;;5118665;28;20474;-82
2023/08/28 14:04:07;;;;;;;1.50;1.20;;;;;;;;;;5118376;28;20416;-83
2023/08/28 14:06:33;;;;;;;1.77;1.25;;;;;;;;;;5117895;28;20396;-81
2023/08/28 14:08:59;;;;;;;1.30;1.20;;;;;;;;;;5098518;28;20839;-82
2023/08/28 14:11:25;;;;;;;1.50;1.40;;;;;;;;;;5099234;28;20435;-82
2023/08/28 14:13:51;;;;;;;1.20;1.10;;;;;;;;;;5118457;28;20372;-81
2023/08/28 14:16:17;;;;;;;1.88;1.70;;;;;;;;;;5115469;28;20383;-81
2023/08/28 14:18:43;;;;;;;1.67;1.58;;;;;;;;;;5100824;28;20812;-81
2023/08/28 14:21:09;;;;;;;2.13;2.00;;;;;;;;;;5101030;28;20409;-81
2023/08/28 14:23:35;;;;;;;2.60;1.77;;;;;;;;;;5097436;28;20470;-83
2023/08/28 14:26:05;;;;;;;1.90;1.70;;;;;;;;;;5107392;28;20397;-83
2023/08/28 14:28:31;;;;;;;1.80;1.70;;;;;;;;;;5104897;28;20382;-82
2023/08/28 14:30:57;;;;;;;1.50;1.40;;;;;;;;;;5099658;28;20419;-82
2023/08/28 14:33:23;;;;;;;2.80;1.50;;;;;;;;;;5106008;28;20372;-81
2023/08/28 14:35:49;;;;;;;2.10;1.40;;;;;;;;;;5107849;28;21060;-82
2023/08/28 14:38:15;;;;;;;1.13;1.10;;;;;;;;;;5103076;28;20771;-81
2023/08/28 14:40:41;;;;;;;1.33;0.98;;;;;;;;;;5116087;28;20384;-82
2023/08/28 14:43:07;;;;;;;1.23;1.13;;;;;;;;;;5098405;28;20408;-82